sensor_id;sensor_type;location;lat;lon;timestamp;pressure;altitude;pressure_sealevel;temperature
82400;BMP280;72039;48.812;8.198;2023-09-19T00:00:49;100007.63;;;18.97
82400;BMP280;72039;48.812;8.198;2023-09-19T00:03:17;100011.13;;;18.93
82400;BMP280;72039;48.812;8.198;2023-09-19T00:05:45;100015.34;;;18.94
82400;BMP280;72039;48.812;8.198;2023-09-19T00:08:11;100018.13;;;18.90
82400;BMP280;72039;48.812;8.198;2023-09-19T00:10:39;100023.00;;;18.87
82400;BMP280;72039;48.812;8.198;2023-09-19T00:13:06;100020.22;;;18.89
82400;BMP280;72039;48.812;8.198;2023-09-19T00:15:40;100015.31;;;18.90
82400;BMP280;72039;48.812;8.198;2023-09-19T00:18:07;100014.59;;;18.89
82400;BMP280;72039;48.812;8.198;2023-09-19T00:20:36;100018.81;;;18.88
82400;BMP280;72039;48.812;8.198;2023-09-19T00:23:04;100014.59;;;18.89
82400;BMP280;72039;48.812;8.198;2023-09-19T00:25:29;100018.13;;;18.90
82400;BMP280;72039;48.812;8.198;2023-09-19T00:27:55;100013.94;;;18.91
82400;BMP280;72039;48.812;8.198;2023-09-19T00:30:21;100017.44;;;18.91
82400;BMP280;72039;48.812;8.198;2023-09-19T00:32:50;100012.50;;;18.92
82400;BMP280;72039;48.812;8.198;2023-09-19T00:35:20;100002.69;;;18.93
82400;BMP280;72039;48.812;8.198;2023-09-19T00:37:47;100001.25;;;18.92
82400;BMP280;72039;48.812;8.198;2023-09-19T00:40:12;100006.88;;;18.92
82400;BMP280;72039;48.812;8.198;2023-09-19T00:42:41;100006.88;;;18.92
82400;BMP280;72039;48.812;8.198;2023-09-19T00:45:09;100003.38;;;18.89
82400;BMP280;72039;48.812;8.198;2023-09-19T00:47:43;100017.38;;;18.87
82400;BMP280;72039;48.812;8.198;2023-09-19T00:50:19;100012.47;;;18.88
82400;BMP280;72039;48.812;8.198;2023-09-19T00:52:46;100025.81;;;18.85
82400;BMP280;72039;48.812;8.198;2023-09-19T00:55:14;100024.41;;;18.84
82400;BMP280;72039;48.812;8.198;2023-09-19T00:57:39;100027.19;;;18.82
82400;BMP280;72039;48.812;8.198;2023-09-19T01:00:08;100022.97;;;18.83
82400;BMP280;72039;48.812;8.198;2023-09-19T01:02:35;100026.50;;;18.82
82400;BMP280;72039;48.812;8.198;2023-09-19T01:05:04;100032.81;;;18.80
82400;BMP280;72039;48.812;8.198;2023-09-19T01:07:32;100035.59;;;18.78
82400;BMP280;72039;48.812;8.198;2023-09-19T01:09:59;100044.75;;;18.81
82400;BMP280;72039;48.812;8.198;2023-09-19T01:24:07;100059.44;;;18.73
82400;BMP280;72039;48.812;8.198;2023-09-19T01:32:10;100060.88;;;18.76
82400;BMP280;72039;48.812;8.198;2023-09-19T01:34:49;100060.88;;;18.78
82400;BMP280;72039;48.812;8.198;2023-09-19T01:37:17;100060.22;;;18.80
82400;BMP280;72039;48.812;8.198;2023-09-19T01:39:52;100060.94;;;18.82
82400;BMP280;72039;48.812;8.198;2023-09-19T01:42:37;100057.44;;;18.86
82400;BMP280;72039;48.812;8.198;2023-09-19T01:47:53;100065.19;;;18.85
82400;BMP280;72039;48.812;8.198;2023-09-19T01:53:03;100072.91;;;18.87
82400;BMP280;72039;48.812;8.198;2023-09-19T01:55:30;100070.13;;;18.89
82400;BMP280;72039;48.812;8.198;2023-09-19T01:58:04;100081.41;;;18.91
82400;BMP280;72039;48.812;8.198;2023-09-19T02:00:34;100078.59;;;18.91
82400;BMP280;72039;48.812;8.198;2023-09-19T02:03:09;100082.84;;;18.94
82400;BMP280;72039;48.812;8.198;2023-09-19T02:05:35;100084.97;;;18.96
82400;BMP280;72039;48.812;8.198;2023-09-19T02:08:04;100084.25;;;18.95
82400;BMP280;72039;48.812;8.198;2023-09-19T02:10:29;100077.22;;;18.96
82400;BMP280;72039;48.812;8.198;2023-09-19T02:12:56;100087.06;;;18.97
82400;BMP280;72039;48.812;8.198;2023-09-19T02:15:21;100085.69;;;18.98
82400;BMP280;72039;48.812;8.198;2023-09-19T02:17:50;100086.38;;;19.01
82400;BMP280;72039;48.812;8.198;2023-09-19T02:20:19;100093.44;;;19.02
82400;BMP280;72039;48.812;8.198;2023-09-19T02:22:45;100094.81;;;19.01
82400;BMP280;72039;48.812;8.198;2023-09-19T02:28:13;100103.97;;;19.01
82400;BMP280;72039;48.812;8.198;2023-09-19T02:30:39;100096.91;;;18.96
82400;BMP280;72039;48.812;8.198;2023-09-19T02:33:04;100101.09;;;18.93
82400;BMP280;72039;48.812;8.198;2023-09-19T02:35:30;100111.63;;;18.92
82400;BMP280;72039;48.812;8.198;2023-09-19T02:38:00;100101.78;;;18.89
82400;BMP280;72039;48.812;8.198;2023-09-19T02:40:27;100105.94;;;18.86
82400;BMP280;72039;48.812;8.198;2023-09-19T02:42:55;100102.44;;;18.84
82400;BMP280;72039;48.812;8.198;2023-09-19T02:45:21;100100.31;;;18.84
82400;BMP280;72039;48.812;8.198;2023-09-19T02:47:48;100100.28;;;18.82
82400;BMP280;72039;48.812;8.198;2023-09-19T02:50:14;100098.91;;;18.81
82400;BMP280;72039;48.812;8.198;2023-09-19T02:52:43;100104.50;;;18.79
82400;BMP280;72039;48.812;8.198;2023-09-19T02:55:11;100101.66;;;18.77
82400;BMP280;72039;48.812;8.198;2023-09-19T02:57:38;100105.88;;;18.78
82400;BMP280;72039;48.812;8.198;2023-09-19T03:00:09;100108.63;;;18.74
82400;BMP280;72039;48.812;8.198;2023-09-19T03:02:43;100122.63;;;18.68
82400;BMP280;72039;48.812;8.198;2023-09-19T03:05:09;100115.56;;;18.65
82400;BMP280;72039;48.812;8.198;2023-09-19T03:11:17;100124.03;;;18.67
82400;BMP280;72039;48.812;8.198;2023-09-19T03:13:51;100126.81;;;18.65
82400;BMP280;72039;48.812;8.198;2023-09-19T03:16:16;100126.09;;;18.64
82400;BMP280;72039;48.812;8.198;2023-09-19T03:18:44;100125.41;;;18.64
82400;BMP280;72039;48.812;8.198;2023-09-19T03:21:10;100125.41;;;18.62
82400;BMP280;72039;48.812;8.198;2023-09-19T03:23:36;100128.16;;;18.58
82400;BMP280;72039;48.812;8.198;2023-09-19T03:26:03;100116.16;;;18.53
82400;BMP280;72039;48.812;8.198;2023-09-19T03:28:33;100125.28;;;18.52
82400;BMP280;72039;48.812;8.198;2023-09-19T03:31:07;100119.72;;;18.54
82400;BMP280;72039;48.812;8.198;2023-09-19T03:33:33;100124.59;;;18.55
82400;BMP280;72039;48.812;8.198;2023-09-19T03:36:01;100135.84;;;18.55
82400;BMP280;72039;48.812;8.198;2023-09-19T03:38:30;100123.88;;;18.53
82400;BMP280;72039;48.812;8.198;2023-09-19T03:40:57;100128.06;;;18.50
82400;BMP280;72039;48.812;8.198;2023-09-19T03:43:22;100125.94;;;18.48
82400;BMP280;72039;48.812;8.198;2023-09-19T03:45:47;100130.81;;;18.46
82400;BMP280;72039;48.812;8.198;2023-09-19T03:48:14;100126.50;;;18.34
82400;BMP280;72039;48.812;8.198;2023-09-19T03:50:56;100133.38;;;18.25
82400;BMP280;72039;48.812;8.198;2023-09-19T03:53:28;100127.69;;;18.17
82400;BMP280;72039;48.812;8.198;2023-09-19T03:55:54;100128.34;;;18.13
82400;BMP280;72039;48.812;8.198;2023-09-19T03:58:20;100133.91;;;18.11
82400;BMP280;72039;48.812;8.198;2023-09-19T04:00:45;100129.72;;;18.10
82400;BMP280;72039;48.812;8.198;2023-09-19T04:03:11;100129.00;;;18.12
82400;BMP280;72039;48.812;8.198;2023-09-19T04:05:50;100133.94;;;18.13
82400;BMP280;72039;48.812;8.198;2023-09-19T04:08:15;100148.00;;;18.13
82400;BMP280;72039;48.812;8.198;2023-09-19T04:10:44;100145.16;;;18.11
82400;BMP280;72039;48.812;8.198;2023-09-19T04:13:10;100147.94;;;18.11
82400;BMP280;72039;48.812;8.198;2023-09-19T04:15:36;100154.28;;;18.12
82400;BMP280;72039;48.812;8.198;2023-09-19T04:18:04;100166.94;;;18.13
82400;BMP280;72039;48.812;8.198;2023-09-19T04:20:29;100175.41;;;18.15
82400;BMP280;72039;48.812;8.198;2023-09-19T04:22:55;100171.88;;;18.14
82400;BMP280;72039;48.812;8.198;2023-09-19T04:25:21;100159.88;;;18.12
82400;BMP280;72039;48.812;8.198;2023-09-19T04:27:46;100175.38;;;18.13
82400;BMP280;72039;48.812;8.198;2023-09-19T04:30:12;100182.34;;;18.12
82400;BMP280;72039;48.812;8.198;2023-09-19T04:32:43;100166.25;;;18.14
82400;BMP280;72039;48.812;8.198;2023-09-19T04:35:10;100178.19;;;18.13
82400;BMP280;72039;48.812;8.198;2023-09-19T04:37:40;100176.78;;;18.14
82400;BMP280;72039;48.812;8.198;2023-09-19T04:40:08;100192.22;;;18.13
82400;BMP280;72039;48.812;8.198;2023-09-19T04:42:41;100190.75;;;18.10
82400;BMP280;72039;48.812;8.198;2023-09-19T04:45:07;100197.06;;;18.08
82400;BMP280;72039;48.812;8.198;2023-09-19T04:47:37;100196.34;;;18.06
82400;BMP280;72039;48.812;8.198;2023-09-19T04:50:09;100208.97;;;18.07
82400;BMP280;72039;48.812;8.198;2023-09-19T04:52:41;100217.38;;;18.05
82400;BMP280;72039;48.812;8.198;2023-09-19T04:55:10;100211.78;;;18.07
82400;BMP280;72039;48.812;8.198;2023-09-19T04:57:39;100225.09;;;18.06
82400;BMP280;72039;48.812;8.198;2023-09-19T05:00:05;100221.63;;;18.08
82400;BMP280;72039;48.812;8.198;2023-09-19T05:02:45;100220.88;;;18.05
82400;BMP280;72039;48.812;8.198;2023-09-19T05:05:13;100227.78;;;17.98
82400;BMP280;72039;48.812;8.198;2023-09-19T05:07:42;100232.69;;;17.96
82400;BMP280;72039;48.812;8.198;2023-09-19T05:10:08;100232.59;;;17.91
82400;BMP280;72039;48.812;8.198;2023-09-19T05:12:41;100233.91;;;17.86
82400;BMP280;72039;48.812;8.198;2023-09-19T05:15:24;100241.66;;;17.86
82400;BMP280;72039;48.812;8.198;2023-09-19T05:17:51;100240.97;;;17.87
82400;BMP280;72039;48.812;8.198;2023-09-19T05:20:17;100253.56;;;17.84
82400;BMP280;72039;48.812;8.198;2023-09-19T05:23:07;100254.88;;;17.79
82400;BMP280;72039;48.812;8.198;2023-09-19T05:25:38;100260.41;;;17.75
82400;BMP280;72039;48.812;8.198;2023-09-19T05:28:06;100264.50;;;17.68
82400;BMP280;72039;48.812;8.198;2023-09-19T05:30:35;100270.09;;;17.66
82400;BMP280;72039;48.812;8.198;2023-09-19T05:33:05;100264.41;;;17.62
82400;BMP280;72039;48.812;8.198;2023-09-19T05:35:31;100264.41;;;17.62
82400;BMP280;72039;48.812;8.198;2023-09-19T05:37:56;100265.81;;;17.63
82400;BMP280;72039;48.812;8.198;2023-09-19T05:40:24;100267.25;;;17.64
82400;BMP280;72039;48.812;8.198;2023-09-19T05:42:49;100268.69;;;17.65
82400;BMP280;72039;48.812;8.198;2023-09-19T05:45:18;100273.59;;;17.64
82400;BMP280;72039;48.812;8.198;2023-09-19T05:47:50;100279.19;;;17.64
82400;BMP280;72039;48.812;8.198;2023-09-19T05:50:19;100278.50;;;17.66
82400;BMP280;72039;48.812;8.198;2023-09-19T05:52:51;100278.53;;;17.68
82400;BMP280;72039;48.812;8.198;2023-09-19T05:55:17;100282.78;;;17.69
82400;BMP280;72039;48.812;8.198;2023-09-19T05:57:43;100282.06;;;17.69
82400;BMP280;72039;48.812;8.198;2023-09-19T06:00:09;100289.84;;;17.72
82400;BMP280;72039;48.812;8.198;2023-09-19T06:02:43;100286.38;;;17.74
82400;BMP280;72039;48.812;8.198;2023-09-19T06:05:16;100289.22;;;17.76
82400;BMP280;72039;48.812;8.198;2023-09-19T06:07:41;100299.06;;;17.79
82400;BMP280;72039;48.812;8.198;2023-09-19T06:13:29;100304.00;;;17.78
82400;BMP280;72039;48.812;8.198;2023-09-19T06:15:55;100297.66;;;17.78
82400;BMP280;72039;48.812;8.198;2023-09-19T06:18:23;100301.16;;;17.76
82400;BMP280;72039;48.812;8.198;2023-09-19T06:20:51;100303.31;;;17.80
82400;BMP280;72039;48.812;8.198;2023-09-19T06:23:17;100302.66;;;17.83
82400;BMP280;72039;48.812;8.198;2023-09-19T06:25:47;100297.13;;;17.87
82400;BMP280;72039;48.812;8.198;2023-09-19T06:28:16;100307.03;;;17.92
82400;BMP280;72039;48.812;8.198;2023-09-19T06:30:43;100305.69;;;17.98
82400;BMP280;72039;48.812;8.198;2023-09-19T06:33:09;100307.16;;;18.01
82400;BMP280;72039;48.812;8.198;2023-09-19T06:35:36;100305.09;;;18.01
82400;BMP280;72039;48.812;8.198;2023-09-19T06:38:03;100303.72;;;18.06
82400;BMP280;72039;48.812;8.198;2023-09-19T06:40:29;100302.41;;;18.11
82400;BMP280;72039;48.812;8.198;2023-09-19T06:42:58;100304.50;;;18.11
82400;BMP280;72039;48.812;8.198;2023-09-19T06:45:25;100296.91;;;18.17
82400;BMP280;72039;48.812;8.198;2023-09-19T06:47:52;100301.91;;;18.23
82400;BMP280;72039;48.812;8.198;2023-09-19T06:50:17;100294.94;;;18.26
82400;BMP280;72039;48.812;8.198;2023-09-19T06:52:45;100296.44;;;18.33
82400;BMP280;72039;48.812;8.198;2023-09-19T06:55:14;100293.66;;;18.37
82400;BMP280;72039;48.812;8.198;2023-09-19T06:57:41;100303.59;;;18.42
82400;BMP280;72039;48.812;8.198;2023-09-19T07:00:09;100299.53;;;18.56
82400;BMP280;72039;48.812;8.198;2023-09-19T07:02:40;100305.56;;;18.84
82400;BMP280;72039;48.812;8.198;2023-09-19T07:05:06;100299.53;;;19.10
82400;BMP280;72039;48.812;8.198;2023-09-19T07:07:36;100307.53;;;19.34
82400;BMP280;72039;48.812;8.198;2023-09-19T07:10:09;100307.75;;;19.55
82400;BMP280;72039;48.812;8.198;2023-09-19T07:12:59;100309.38;;;19.80
82400;BMP280;72039;48.812;8.198;2023-09-19T07:15:25;100298.91;;;19.95
82400;BMP280;72039;48.812;8.198;2023-09-19T07:17:58;100302.53;;;20.08
82400;BMP280;72039;48.812;8.198;2023-09-19T07:20:24;100305.44;;;20.18
82400;BMP280;72039;48.812;8.198;2023-09-19T07:22:53;100308.28;;;20.20
82400;BMP280;72039;48.812;8.198;2023-09-19T07:25:21;100309.75;;;20.29
82400;BMP280;72039;48.812;8.198;2023-09-19T07:27:46;100315.50;;;20.50
82400;BMP280;72039;48.812;8.198;2023-09-19T07:30:18;100323.31;;;20.63
82400;BMP280;72039;48.812;8.198;2023-09-19T07:32:43;100317.03;;;20.81
82400;BMP280;72039;48.812;8.198;2023-09-19T07:35:09;100316.41;;;20.97
82400;BMP280;72039;48.812;8.198;2023-09-19T07:37:35;100319.94;;;21.10
82400;BMP280;72039;48.812;8.198;2023-09-19T07:40:02;100320.00;;;21.22
82400;BMP280;72039;48.812;8.198;2023-09-19T07:42:37;100324.94;;;21.27
82400;BMP280;72039;48.812;8.198;2023-09-19T07:45:09;100332.69;;;21.17
82400;BMP280;72039;48.812;8.198;2023-09-19T07:47:40;100328.44;;;21.18
82400;BMP280;72039;48.812;8.198;2023-09-19T07:50:11;100334.09;;;21.20
82400;BMP280;72039;48.812;8.198;2023-09-19T07:52:36;100339.06;;;21.25
82400;BMP280;72039;48.812;8.198;2023-09-19T07:55:05;100339.06;;;21.40
82400;BMP280;72039;48.812;8.198;2023-09-19T07:57:35;100341.94;;;21.62
82400;BMP280;72039;48.812;8.198;2023-09-19T08:00:01;100351.13;;;21.77
82400;BMP280;72039;48.812;8.198;2023-09-19T08:02:33;100355.34;;;21.88
82400;BMP280;72039;48.812;8.198;2023-09-19T08:04:59;100360.31;;;22.02
82400;BMP280;72039;48.812;8.198;2023-09-19T08:07:26;100357.47;;;22.14
82400;BMP280;72039;48.812;8.198;2023-09-19T08:09:51;100359.56;;;22.28
82400;BMP280;72039;48.812;8.198;2023-09-19T08:12:19;100364.47;;;22.48
82400;BMP280;72039;48.812;8.198;2023-09-19T08:14:51;100373.59;;;22.67
82400;BMP280;72039;48.812;8.198;2023-09-19T08:17:20;100362.97;;;22.67
82400;BMP280;72039;48.812;8.198;2023-09-19T08:19:49;100362.22;;;22.81
82400;BMP280;72039;48.812;8.198;2023-09-19T08:22:24;100373.59;;;22.69
82400;BMP280;72039;48.812;8.198;2023-09-19T08:24:49;100375.78;;;22.44
82400;BMP280;72039;48.812;8.198;2023-09-19T08:27:17;100387.84;;;22.05
82400;BMP280;72039;48.812;8.198;2023-09-19T08:29:44;100375.84;;;21.97
82400;BMP280;72039;48.812;8.198;2023-09-19T08:32:10;100380.78;;;21.92
82400;BMP280;72039;48.812;8.198;2023-09-19T08:34:36;100378.66;;;21.76
82400;BMP280;72039;48.812;8.198;2023-09-19T08:37:04;100387.84;;;21.69
82400;BMP280;72039;48.812;8.198;2023-09-19T08:39:29;100375.09;;;21.68
82400;BMP280;72039;48.812;8.198;2023-09-19T08:42:00;100389.97;;;21.62
82400;BMP280;72039;48.812;8.198;2023-09-19T08:44:26;100394.88;;;21.56
82400;BMP280;72039;48.812;8.198;2023-09-19T08:47:13;100390.63;;;21.52
82400;BMP280;72039;48.812;8.198;2023-09-19T08:50:03;100396.25;;;21.40
82400;BMP280;72039;48.812;8.198;2023-09-19T08:52:41;100399.03;;;21.28
82400;BMP280;72039;48.812;8.198;2023-09-19T08:55:11;100398.28;;;21.17
82400;BMP280;72039;48.812;8.198;2023-09-19T08:57:37;100406.75;;;21.13
82400;BMP280;72039;48.812;8.198;2023-09-19T09:00:09;100390.59;;;21.38
82400;BMP280;72039;48.812;8.198;2023-09-19T09:02:37;100399.75;;;21.35
82400;BMP280;72039;48.812;8.198;2023-09-19T09:05:07;100392.69;;;21.34
82400;BMP280;72039;48.812;8.198;2023-09-19T09:07:35;100401.88;;;21.26
82400;BMP280;72039;48.812;8.198;2023-09-19T09:10:03;100406.06;;;21.25
82400;BMP280;72039;48.812;8.198;2023-09-19T09:12:29;100401.88;;;21.32
82400;BMP280;72039;48.812;8.198;2023-09-19T09:14:58;100393.47;;;21.67
82400;BMP280;72039;48.812;8.198;2023-09-19T09:17:26;100387.84;;;22.10
82400;BMP280;72039;48.812;8.198;2023-09-19T09:19:52;100386.34;;;22.55
82400;BMP280;72039;48.812;8.198;2023-09-19T09:22:19;100379.97;;;22.65
82400;BMP280;72039;48.812;8.198;2023-09-19T09:24:57;100390.59;;;22.50
82400;BMP280;72039;48.812;8.198;2023-09-19T09:27:33;100401.91;;;22.61
82400;BMP280;72039;48.812;8.198;2023-09-19T09:29:59;100398.91;;;23.01
82400;BMP280;72039;48.812;8.198;2023-09-19T09:34:56;100407.44;;;22.99
82400;BMP280;72039;48.812;8.198;2023-09-19T09:37:23;100405.22;;;23.18
82400;BMP280;72039;48.812;8.198;2023-09-19T09:40:00;100397.22;;;23.55
82400;BMP280;72039;48.812;8.198;2023-09-19T09:42:45;100392.03;;;23.82
82400;BMP280;72039;48.812;8.198;2023-09-19T09:45:26;100399.56;;;24.12
82400;BMP280;72039;48.812;8.198;2023-09-19T09:47:58;100395.16;;;24.28
82400;BMP280;72039;48.812;8.198;2023-09-19T09:50:29;100394.97;;;24.46
82400;BMP280;72039;48.812;8.198;2023-09-19T09:53:03;100396.91;;;24.62
82400;BMP280;72039;48.812;8.198;2023-09-19T09:55:59;100384.53;;;24.88
82400;BMP280;72039;48.812;8.198;2023-09-19T09:58:25;100402.63;;;24.58
82400;BMP280;72039;48.812;8.198;2023-09-19T10:00:58;100403.72;;;24.24
82400;BMP280;72039;48.812;8.198;2023-09-19T10:03:33;100393.38;;;23.91
82400;BMP280;72039;48.812;8.198;2023-09-19T10:06:00;100416.28;;;23.63
82400;BMP280;72039;48.812;8.198;2023-09-19T10:08:28;100407.19;;;23.42
82400;BMP280;72039;48.812;8.198;2023-09-19T10:10:56;100405.84;;;23.27
82400;BMP280;72039;48.812;8.198;2023-09-19T10:13:31;100413.59;;;23.38
82400;BMP280;72039;48.812;8.198;2023-09-19T10:15:58;100401.53;;;23.42
82400;BMP280;72039;48.812;8.198;2023-09-19T10:18:32;100410.03;;;23.44
82400;BMP280;72039;48.812;8.198;2023-09-19T10:21:04;100409.97;;;23.52
82400;BMP280;72039;48.812;8.198;2023-09-19T10:23:32;100403.53;;;23.62
82400;BMP280;72039;48.812;8.198;2023-09-19T10:26:01;100408.56;;;23.55
82400;BMP280;72039;48.812;8.198;2023-09-19T10:28:30;100405.72;;;23.51
82400;BMP280;72039;48.812;8.198;2023-09-19T10:30:57;100407.19;;;23.44
82400;BMP280;72039;48.812;8.198;2023-09-19T10:33:24;100404.25;;;23.56
82400;BMP280;72039;48.812;8.198;2023-09-19T10:35:59;100397.25;;;23.49
82400;BMP280;72039;48.812;8.198;2023-09-19T10:38:26;100400.91;;;23.33
82400;BMP280;72039;48.812;8.198;2023-09-19T10:41:00;100393.88;;;23.22
82400;BMP280;72039;48.812;8.198;2023-09-19T10:43:32;100397.47;;;23.10
82400;BMP280;72039;48.812;8.198;2023-09-19T10:46:02;100400.34;;;23.02
82400;BMP280;72039;48.812;8.198;2023-09-19T10:48:29;100403.13;;;23.10
82400;BMP280;72039;48.812;8.198;2023-09-19T10:53:52;100405.19;;;23.20
82400;BMP280;72039;48.812;8.198;2023-09-19T10:56:21;100398.84;;;23.13
82400;BMP280;72039;48.812;8.198;2023-09-19T10:58:48;100395.34;;;23.09
82400;BMP280;72039;48.812;8.198;2023-09-19T11:01:15;100398.91;;;23.09
82400;BMP280;72039;48.812;8.198;2023-09-19T11:03:42;100394.63;;;23.10
82400;BMP280;72039;48.812;8.198;2023-09-19T11:06:19;100396.06;;;23.09
82400;BMP280;72039;48.812;8.198;2023-09-19T11:09:02;100381.00;;;23.42
82400;BMP280;72039;48.812;8.198;2023-09-19T11:11:42;100378.78;;;23.58
82400;BMP280;72039;48.812;8.198;2023-09-19T11:14:39;100378.81;;;23.52
82400;BMP280;72039;48.812;8.198;2023-09-19T11:30:39;100362.41;;;24.43
82400;BMP280;72039;48.812;8.198;2023-09-19T11:33:33;100359.03;;;24.86
82400;BMP280;72039;48.812;8.198;2023-09-19T11:36:09;100355.19;;;25.06
82400;BMP280;72039;48.812;8.198;2023-09-19T11:43:50;100352.53;;;24.95
82400;BMP280;72039;48.812;8.198;2023-09-19T11:46:22;100347.25;;;25.14
82400;BMP280;72039;48.812;8.198;2023-09-19T11:48:48;100348.34;;;25.36
82400;BMP280;72039;48.812;8.198;2023-09-19T11:51:22;100340.84;;;25.59
82400;BMP280;72039;48.812;8.198;2023-09-19T11:53:56;100339.72;;;25.42
82400;BMP280;72039;48.812;8.198;2023-09-19T11:56:26;100337.91;;;25.24
82400;BMP280;72039;48.812;8.198;2023-09-19T11:58:55;100335.13;;;25.18
82400;BMP280;72039;48.812;8.198;2023-09-19T12:03:59;100344.63;;;25.02
82400;BMP280;72039;48.812;8.198;2023-09-19T12:06:26;100348.22;;;24.98
82400;BMP280;72039;48.812;8.198;2023-09-19T12:11:57;100326.63;;;24.66
82400;BMP280;72039;48.812;8.198;2023-09-19T12:14:26;100326.59;;;24.68
82400;BMP280;72039;48.812;8.198;2023-09-19T12:16:53;100311.88;;;25.07
82400;BMP280;72039;48.812;8.198;2023-09-19T12:19:21;100311.91;;;25.05
82400;BMP280;72039;48.812;8.198;2023-09-19T12:22:02;100318.19;;;25.14
82400;BMP280;72039;48.812;8.198;2023-09-19T12:24:30;100320.44;;;25.05
82400;BMP280;72039;48.812;8.198;2023-09-19T12:27:03;100309.38;;;25.32
82400;BMP280;72039;48.812;8.198;2023-09-19T12:29:48;100314.31;;;25.32
82400;BMP280;72039;48.812;8.198;2023-09-19T12:32:17;100314.25;;;25.38
82400;BMP280;72039;48.812;8.198;2023-09-19T12:34:51;100313.91;;;25.56
82400;BMP280;72039;48.812;8.198;2023-09-19T12:37:18;100299.94;;;25.44
82400;BMP280;72039;48.812;8.198;2023-09-19T12:39:50;100293.81;;;25.68
82400;BMP280;72039;48.812;8.198;2023-09-19T12:42:20;100295.72;;;25.80
82400;BMP280;72039;48.812;8.198;2023-09-19T12:44:50;100303.91;;;25.59
82400;BMP280;72039;48.812;8.198;2023-09-19T12:47:27;100301.63;;;25.26
82400;BMP280;72039;48.812;8.198;2023-09-19T12:50:15;100301.31;;;25.01
82400;BMP280;72039;48.812;8.198;2023-09-19T12:52:48;100301.69;;;25.22
82400;BMP280;72039;48.812;8.198;2023-09-19T12:55:30;100294.75;;;25.11
82400;BMP280;72039;48.812;8.198;2023-09-19T12:58:14;100300.59;;;25.03
82400;BMP280;72039;48.812;8.198;2023-09-19T13:00:45;100299.72;;;25.13
82400;BMP280;72039;48.812;8.198;2023-09-19T13:08:31;100293.94;;;25.62
82400;BMP280;72039;48.812;8.198;2023-09-19T13:11:18;100274.75;;;26.00
82400;BMP280;72039;48.812;8.198;2023-09-19T13:16:54;100276.47;;;26.53
82400;BMP280;72039;48.812;8.198;2023-09-19T13:19:40;100277.38;;;26.76
82400;BMP280;72039;48.812;8.198;2023-09-19T13:25:18;100273.19;;;27.04
82400;BMP280;72039;48.812;8.198;2023-09-19T13:27:45;100279.44;;;27.09
82400;BMP280;72039;48.812;8.198;2023-09-19T13:30:12;100276.66;;;27.07
82400;BMP280;72039;48.812;8.198;2023-09-19T13:32:38;100275.94;;;27.06
82400;BMP280;72039;48.812;8.198;2023-09-19T13:35:07;100277.09;;;26.88
82400;BMP280;72039;48.812;8.198;2023-09-19T13:37:34;100268.53;;;26.88
82400;BMP280;72039;48.812;8.198;2023-09-19T13:40:03;100259.88;;;26.92
82400;BMP280;72039;48.812;8.198;2023-09-19T13:42:30;100273.19;;;27.02
82400;BMP280;72039;48.812;8.198;2023-09-19T13:44:58;100261.78;;;27.04
82400;BMP280;72039;48.812;8.198;2023-09-19T13:47:23;100265.34;;;27.03
82400;BMP280;72039;48.812;8.198;2023-09-19T13:49:51;100258.38;;;26.98
82400;BMP280;72039;48.812;8.198;2023-09-19T13:52:19;100256.25;;;26.96
82400;BMP280;72039;48.812;8.198;2023-09-19T13:54:44;100254.44;;;26.82
82400;BMP280;72039;48.812;8.198;2023-09-19T13:57:15;100253.31;;;26.69
82400;BMP280;72039;48.812;8.198;2023-09-19T13:59:42;100263.56;;;26.58
82400;BMP280;72039;48.812;8.198;2023-09-19T14:02:07;100264.50;;;26.48
82400;BMP280;72039;48.812;8.198;2023-09-19T14:04:40;100251.97;;;26.35
82400;BMP280;72039;48.812;8.198;2023-09-19T14:07:06;100245.06;;;26.26
82400;BMP280;72039;48.812;8.198;2023-09-19T14:09:33;100246.66;;;26.17
82400;BMP280;72039;48.812;8.198;2023-09-19T14:11:59;100245.38;;;26.09
82400;BMP280;72039;48.812;8.198;2023-09-19T14:14:26;100247.72;;;26.01
82400;BMP280;72039;48.812;8.198;2023-09-19T14:16:55;100247.97;;;25.87
82400;BMP280;72039;48.812;8.198;2023-09-19T14:19:26;100258.13;;;25.77
82400;BMP280;72039;48.812;8.198;2023-09-19T14:21:56;100246.91;;;25.69
82400;BMP280;72039;48.812;8.198;2023-09-19T14:24:22;100249.91;;;25.59
82400;BMP280;72039;48.812;8.198;2023-09-19T14:26:48;100242.94;;;25.54
82400;BMP280;72039;48.812;8.198;2023-09-19T14:29:15;100253.72;;;25.45
82400;BMP280;72039;48.812;8.198;2023-09-19T14:31:42;100240.34;;;25.40
82400;BMP280;72039;48.812;8.198;2023-09-19T14:34:08;100246.78;;;25.36
82400;BMP280;72039;48.812;8.198;2023-09-19T14:36:39;100236.97;;;25.29
82400;BMP280;72039;48.812;8.198;2023-09-19T14:39:07;100241.34;;;25.24
82400;BMP280;72039;48.812;8.198;2023-09-19T14:41:33;100235.00;;;25.19
82400;BMP280;72039;48.812;8.198;2023-09-19T14:44:02;100232.28;;;25.13
82400;BMP280;72039;48.812;8.198;2023-09-19T14:46:35;100229.53;;;25.09
82400;BMP280;72039;48.812;8.198;2023-09-19T14:49:01;100235.28;;;25.03
82400;BMP280;72039;48.812;8.198;2023-09-19T14:51:29;100232.47;;;25.01
82400;BMP280;72039;48.812;8.198;2023-09-19T14:53:54;100225.47;;;24.96
82400;BMP280;72039;48.812;8.198;2023-09-19T14:56:23;100235.47;;;24.91
82400;BMP280;72039;48.812;8.198;2023-09-19T14:58:52;100222.78;;;24.86
82400;BMP280;72039;48.812;8.198;2023-09-19T15:01:17;100221.41;;;24.83
82400;BMP280;72039;48.812;8.198;2023-09-19T15:03:43;100221.44;;;24.81
82400;BMP280;72039;48.812;8.198;2023-09-19T15:06:12;100223.63;;;24.76
82400;BMP280;72039;48.812;8.198;2023-09-19T15:08:41;100220.09;;;24.75
82400;BMP280;72039;48.812;8.198;2023-09-19T15:11:11;100215.88;;;24.74
82400;BMP280;72039;48.812;8.198;2023-09-19T15:13:40;100218.72;;;24.74
82400;BMP280;72039;48.812;8.198;2023-09-19T15:16:08;100214.41;;;24.75
82400;BMP280;72039;48.812;8.198;2023-09-19T15:18:45;100205.84;;;24.80
82400;BMP280;72039;48.812;8.198;2023-09-19T15:21:13;100211.56;;;24.78
82400;BMP280;72039;48.812;8.198;2023-09-19T15:23:41;100218.72;;;24.74